sensor_id;sensor_type;location;lat;lon;timestamp;P1;durP1;ratioP1;P2;durP2;ratioP2
15153;SDS011;7677;41.896;25.004;2023-07-31T00:01:55;3.22;;;1.60;;
15153;SDS011;7677;41.896;25.004;2023-07-31T00:04:22;2.22;;;1.88;;
15153;SDS011;7677;41.896;25.004;2023-07-31T00:06:49;1.77;;;1.60;;
15153;SDS011;7677;41.896;25.004;2023-07-31T00:09:18;4.82;;;1.85;;
15153;SDS011;7677;41.896;25.004;2023-07-31T00:11:45;2.30;;;1.95;;
15153;SDS011;7677;41.896;25.004;2023-07-31T00:14:12;2.08;;;1.98;;
15153;SDS011;7677;41.896;25.004;2023-07-31T00:16:39;1.70;;;1.60;;
15153;SDS011;7677;41.896;25.004;2023-07-31T00:19:06;2.30;;;2.10;;
15153;SDS011;7677;41.896;25.004;2023-07-31T00:21:33;2.53;;;1.95;;
15153;SDS011;7677;41.896;25.004;2023-07-31T00:24:00;2.80;;;2.28;;
15153;SDS011;7677;41.896;25.004;2023-07-31T00:26:28;1.92;;;1.77;;
15153;SDS011;7677;41.896;25.004;2023-07-31T00:28:55;2.38;;;2.00;;
15153;SDS011;7677;41.896;25.004;2023-07-31T00:31:22;1.63;;;1.50;;
15153;SDS011;7677;41.896;25.004;2023-07-31T00:33:49;1.90;;;1.65;;
15153;SDS011;7677;41.896;25.004;2023-07-31T00:36:16;2.05;;;1.70;;
15153;SDS011;7677;41.896;25.004;2023-07-31T00:38:44;2.05;;;1.75;;
15153;SDS011;7677;41.896;25.004;2023-07-31T00:41:11;2.70;;;1.40;;
15153;SDS011;7677;41.896;25.004;2023-07-31T00:43:39;1.63;;;1.40;;
15153;SDS011;7677;41.896;25.004;2023-07-31T00:46:06;2.17;;;1.58;;
15153;SDS011;7677;41.896;25.004;2023-07-31T00:48:33;1.45;;;1.35;;
15153;SDS011;7677;41.896;25.004;2023-07-31T00:51:01;1.50;;;1.40;;
15153;SDS011;7677;41.896;25.004;2023-07-31T00:53:28;1.00;;;1.00;;
15153;SDS011;7677;41.896;25.004;2023-07-31T00:55:55;1.75;;;1.40;;
15153;SDS011;7677;41.896;25.004;2023-07-31T00:58:22;1.67;;;1.45;;
15153;SDS011;7677;41.896;25.004;2023-07-31T01:00:50;1.33;;;1.23;;
15153;SDS011;7677;41.896;25.004;2023-07-31T01:03:17;1.45;;;1.35;;
15153;SDS011;7677;41.896;25.004;2023-07-31T01:05:46;1.50;;;1.40;;
15153;SDS011;7677;41.896;25.004;2023-07-31T01:08:21;1.58;;;1.48;;
15153;SDS011;7677;41.896;25.004;2023-07-31T01:10:54;1.95;;;1.58;;
15153;SDS011;7677;41.896;25.004;2023-07-31T01:13:22;1.58;;;1.48;;
15153;SDS011;7677;41.896;25.004;2023-07-31T01:15:51;2.70;;;1.50;;
15153;SDS011;7677;41.896;25.004;2023-07-31T01:18:18;2.10;;;1.10;;
15153;SDS011;7677;41.896;25.004;2023-07-31T01:20:46;1.58;;;1.35;;
15153;SDS011;7677;41.896;25.004;2023-07-31T01:26:23;2.17;;;1.40;;
15153;SDS011;7677;41.896;25.004;2023-07-31T01:28:54;2.03;;;1.48;;
15153;SDS011;7677;41.896;25.004;2023-07-31T01:31:23;1.48;;;1.38;;
15153;SDS011;7677;41.896;25.004;2023-07-31T01:33:51;1.55;;;1.40;;
15153;SDS011;7677;41.896;25.004;2023-07-31T01:36:20;1.63;;;1.50;;
15153;SDS011;7677;41.896;25.004;2023-07-31T01:38:47;1.80;;;1.70;;
15153;SDS011;7677;41.896;25.004;2023-07-31T01:41:16;1.52;;;1.40;;
15153;SDS011;7677;41.896;25.004;2023-07-31T01:43:45;1.98;;;1.80;;
15153;SDS011;7677;41.896;25.004;2023-07-31T01:46:12;2.17;;;1.98;;
15153;SDS011;7677;41.896;25.004;2023-07-31T01:48:39;1.70;;;1.55;;
15153;SDS011;7677;41.896;25.004;2023-07-31T01:51:06;2.95;;;1.80;;
15153;SDS011;7677;41.896;25.004;2023-07-31T01:53:33;1.70;;;1.60;;
15153;SDS011;7677;41.896;25.004;2023-07-31T01:56:00;1.65;;;1.55;;
15153;SDS011;7677;41.896;25.004;2023-07-31T01:58:27;2.55;;;1.58;;
15153;SDS011;7677;41.896;25.004;2023-07-31T02:00:55;2.13;;;1.52;;
15153;SDS011;7677;41.896;25.004;2023-07-31T02:03:22;2.35;;;1.95;;
15153;SDS011;7677;41.896;25.004;2023-07-31T02:05:49;2.08;;;1.67;;
15153;SDS011;7677;41.896;25.004;2023-07-31T02:08:16;3.03;;;1.55;;
15153;SDS011;7677;41.896;25.004;2023-07-31T02:10:43;2.78;;;1.77;;
15153;SDS011;7677;41.896;25.004;2023-07-31T02:13:10;1.50;;;1.40;;
15153;SDS011;7677;41.896;25.004;2023-07-31T02:15:37;1.80;;;1.55;;
15153;SDS011;7677;41.896;25.004;2023-07-31T02:18:06;1.88;;;1.70;;
15153;SDS011;7677;41.896;25.004;2023-07-31T02:20:33;1.60;;;1.50;;
15153;SDS011;7677;41.896;25.004;2023-07-31T02:23:01;2.13;;;1.92;;
15153;SDS011;7677;41.896;25.004;2023-07-31T02:25:28;4.97;;;1.70;;
15153;SDS011;7677;41.896;25.004;2023-07-31T02:27:55;2.90;;;1.60;;
15153;SDS011;7677;41.896;25.004;2023-07-31T02:30:22;1.80;;;1.70;;
15153;SDS011;7677;41.896;25.004;2023-07-31T02:32:49;2.30;;;1.95;;
15153;SDS011;7677;41.896;25.004;2023-07-31T02:35:18;1.80;;;1.70;;
15153;SDS011;7677;41.896;25.004;2023-07-31T02:37:45;1.92;;;1.73;;
15153;SDS011;7677;41.896;25.004;2023-07-31T02:40:12;1.95;;;1.80;;
15153;SDS011;7677;41.896;25.004;2023-07-31T02:42:39;1.90;;;1.73;;
15153;SDS011;7677;41.896;25.004;2023-07-31T02:45:07;2.05;;;1.95;;
15153;SDS011;7677;41.896;25.004;2023-07-31T02:47:34;2.53;;;1.90;;
15153;SDS011;7677;41.896;25.004;2023-07-31T02:50:01;1.70;;;1.60;;
15153;SDS011;7677;41.896;25.004;2023-07-31T02:52:30;2.20;;;1.88;;
15153;SDS011;7677;41.896;25.004;2023-07-31T02:54:57;2.00;;;1.77;;
15153;SDS011;7677;41.896;25.004;2023-07-31T02:57:24;2.22;;;2.03;;
15153;SDS011;7677;41.896;25.004;2023-07-31T02:59:51;1.60;;;1.50;;
15153;SDS011;7677;41.896;25.004;2023-07-31T03:02:18;3.08;;;1.88;;
15153;SDS011;7677;41.896;25.004;2023-07-31T03:04:45;2.30;;;2.08;;
15153;SDS011;7677;41.896;25.004;2023-07-31T03:07:12;3.25;;;2.20;;
15153;SDS011;7677;41.896;25.004;2023-07-31T03:09:40;5.45;;;2.47;;
15153;SDS011;7677;41.896;25.004;2023-07-31T03:12:08;2.45;;;2.25;;
15153;SDS011;7677;41.896;25.004;2023-07-31T03:14:35;1.92;;;1.83;;
15153;SDS011;7677;41.896;25.004;2023-07-31T03:17:02;2.55;;;2.17;;
15153;SDS011;7677;41.896;25.004;2023-07-31T03:19:30;1.92;;;1.70;;
15153;SDS011;7677;41.896;25.004;2023-07-31T03:21:58;1.50;;;1.40;;
15153;SDS011;7677;41.896;25.004;2023-07-31T03:24:25;2.20;;;2.00;;
15153;SDS011;7677;41.896;25.004;2023-07-31T03:26:53;2.35;;;2.15;;
15153;SDS011;7677;41.896;25.004;2023-07-31T03:29:20;3.15;;;2.03;;
15153;SDS011;7677;41.896;25.004;2023-07-31T03:31:47;3.20;;;2.13;;
15153;SDS011;7677;41.896;25.004;2023-07-31T03:34:14;3.00;;;2.13;;
15153;SDS011;7677;41.896;25.004;2023-07-31T03:36:41;3.63;;;1.80;;
15153;SDS011;7677;41.896;25.004;2023-07-31T03:39:09;2.15;;;1.95;;
15153;SDS011;7677;41.896;25.004;2023-07-31T03:41:36;2.08;;;1.88;;
15153;SDS011;7677;41.896;25.004;2023-07-31T03:44:04;2.35;;;1.83;;
15153;SDS011;7677;41.896;25.004;2023-07-31T03:46:31;1.75;;;1.65;;
15153;SDS011;7677;41.896;25.004;2023-07-31T03:48:59;2.40;;;1.92;;
15153;SDS011;7677;41.896;25.004;2023-07-31T03:51:26;4.05;;;2.00;;
15153;SDS011;7677;41.896;25.004;2023-07-31T03:53:53;2.92;;;2.28;;
15153;SDS011;7677;41.896;25.004;2023-07-31T03:56:20;2.65;;;1.90;;
15153;SDS011;7677;41.896;25.004;2023-07-31T03:58:47;2.13;;;1.92;;
15153;SDS011;7677;41.896;25.004;2023-07-31T04:01:16;2.15;;;1.77;;
15153;SDS011;7677;41.896;25.004;2023-07-31T04:03:44;2.10;;;1.90;;
15153;SDS011;7677;41.896;25.004;2023-07-31T04:06:11;2.85;;;2.38;;
15153;SDS011;7677;41.896;25.004;2023-07-31T04:08:38;2.00;;;1.90;;
15153;SDS011;7677;41.896;25.004;2023-07-31T04:11:05;2.88;;;2.28;;
15153;SDS011;7677;41.896;25.004;2023-07-31T04:13:32;2.35;;;2.00;;
15153;SDS011;7677;41.896;25.004;2023-07-31T04:15:59;2.05;;;1.88;;
15153;SDS011;7677;41.896;25.004;2023-07-31T04:18:28;3.08;;;2.45;;
15153;SDS011;7677;41.896;25.004;2023-07-31T04:20:56;2.28;;;2.08;;
15153;SDS011;7677;41.896;25.004;2023-07-31T04:23:23;2.60;;;1.83;;
15153;SDS011;7677;41.896;25.004;2023-07-31T04:25:50;2.65;;;2.05;;
15153;SDS011;7677;41.896;25.004;2023-07-31T04:28:17;3.33;;;1.75;;
15153;SDS011;7677;41.896;25.004;2023-07-31T04:30:44;3.50;;;2.10;;
15153;SDS011;7677;41.896;25.004;2023-07-31T04:33:11;2.38;;;2.17;;
15153;SDS011;7677;41.896;25.004;2023-07-31T04:35:39;4.78;;;2.88;;
15153;SDS011;7677;41.896;25.004;2023-07-31T04:38:06;4.57;;;2.80;;
15153;SDS011;7677;41.896;25.004;2023-07-31T04:40:33;7.35;;;2.95;;
15153;SDS011;7677;41.896;25.004;2023-07-31T04:43:00;3.97;;;2.63;;
15153;SDS011;7677;41.896;25.004;2023-07-31T04:45:27;4.93;;;2.80;;
15153;SDS011;7677;41.896;25.004;2023-07-31T04:47:54;5.70;;;3.15;;
15153;SDS011;7677;41.896;25.004;2023-07-31T04:50:21;5.18;;;3.13;;
15153;SDS011;7677;41.896;25.004;2023-07-31T04:52:50;5.57;;;3.03;;
15153;SDS011;7677;41.896;25.004;2023-07-31T04:55:17;9.13;;;2.78;;
15153;SDS011;7677;41.896;25.004;2023-07-31T04:57:44;3.28;;;2.35;;
15153;SDS011;7677;41.896;25.004;2023-07-31T05:00:11;4.97;;;2.78;;
15153;SDS011;7677;41.896;25.004;2023-07-31T05:02:38;6.00;;;2.88;;
15153;SDS011;7677;41.896;25.004;2023-07-31T05:05:05;4.80;;;3.10;;
15153;SDS011;7677;41.896;25.004;2023-07-31T05:07:33;4.78;;;2.95;;
15153;SDS011;7677;41.896;25.004;2023-07-31T05:10:01;2.95;;;2.63;;
15153;SDS011;7677;41.896;25.004;2023-07-31T05:12:28;3.70;;;2.75;;
15153;SDS011;7677;41.896;25.004;2023-07-31T05:14:55;5.35;;;2.63;;
15153;SDS011;7677;41.896;25.004;2023-07-31T05:17:22;4.65;;;2.92;;
15153;SDS011;7677;41.896;25.004;2023-07-31T05:19:49;3.72;;;2.92;;
15153;SDS011;7677;41.896;25.004;2023-07-31T05:22:16;3.30;;;2.80;;
15153;SDS011;7677;41.896;25.004;2023-07-31T05:24:44;3.63;;;2.80;;
15153;SDS011;7677;41.896;25.004;2023-07-31T05:27:12;3.67;;;2.67;;
15153;SDS011;7677;41.896;25.004;2023-07-31T05:29:40;4.25;;;2.78;;
15153;SDS011;7677;41.896;25.004;2023-07-31T05:32:07;3.80;;;3.00;;
15153;SDS011;7677;41.896;25.004;2023-07-31T05:34:34;3.10;;;2.70;;
15153;SDS011;7677;41.896;25.004;2023-07-31T05:37:01;3.97;;;2.97;;
15153;SDS011;7677;41.896;25.004;2023-07-31T05:39:28;4.13;;;2.70;;
15153;SDS011;7677;41.896;25.004;2023-07-31T05:41:55;3.42;;;3.00;;
15153;SDS011;7677;41.896;25.004;2023-07-31T05:44:24;6.00;;;3.55;;
15153;SDS011;7677;41.896;25.004;2023-07-31T05:46:51;3.58;;;3.28;;
15153;SDS011;7677;41.896;25.004;2023-07-31T05:49:18;3.95;;;3.38;;
15153;SDS011;7677;41.896;25.004;2023-07-31T05:51:45;3.35;;;2.75;;
15153;SDS011;7677;41.896;25.004;2023-07-31T05:54:12;3.95;;;3.15;;
15153;SDS011;7677;41.896;25.004;2023-07-31T05:56:39;3.85;;;3.50;;
15153;SDS011;7677;41.896;25.004;2023-07-31T05:59:06;5.13;;;3.20;;
15153;SDS011;7677;41.896;25.004;2023-07-31T06:01:36;3.53;;;2.83;;
15153;SDS011;7677;41.896;25.004;2023-07-31T06:04:03;6.15;;;3.10;;
15153;SDS011;7677;41.896;25.004;2023-07-31T06:06:30;3.47;;;3.17;;
15153;SDS011;7677;41.896;25.004;2023-07-31T06:08:57;3.10;;;2.80;;
15153;SDS011;7677;41.896;25.004;2023-07-31T06:11:24;3.38;;;3.08;;
15153;SDS011;7677;41.896;25.004;2023-07-31T06:13:51;3.53;;;3.20;;
15153;SDS011;7677;41.896;25.004;2023-07-31T06:16:18;3.83;;;3.00;;
15153;SDS011;7677;41.896;25.004;2023-07-31T06:18:48;2.67;;;2.42;;
15153;SDS011;7677;41.896;25.004;2023-07-31T06:21:15;3.05;;;2.75;;
15153;SDS011;7677;41.896;25.004;2023-07-31T06:23:42;3.30;;;2.97;;
15153;SDS011;7677;41.896;25.004;2023-07-31T06:26:09;3.47;;;3.17;;
15153;SDS011;7677;41.896;25.004;2023-07-31T06:28:36;3.38;;;3.08;;
15153;SDS011;7677;41.896;25.004;2023-07-31T06:31:03;4.57;;;2.78;;
15153;SDS011;7677;41.896;25.004;2023-07-31T06:33:30;2.88;;;2.67;;
15153;SDS011;7677;41.896;25.004;2023-07-31T06:35:58;3.30;;;2.75;;
15153;SDS011;7677;41.896;25.004;2023-07-31T06:38:26;3.80;;;3.05;;
15153;SDS011;7677;41.896;25.004;2023-07-31T06:40:53;4.38;;;2.85;;
15153;SDS011;7677;41.896;25.004;2023-07-31T06:43:20;3.92;;;3.30;;
15153;SDS011;7677;41.896;25.004;2023-07-31T06:45:47;3.42;;;3.13;;
15153;SDS011;7677;41.896;25.004;2023-07-31T06:48:16;3.10;;;2.78;;
15153;SDS011;7677;41.896;25.004;2023-07-31T06:50:43;2.50;;;2.30;;
15153;SDS011;7677;41.896;25.004;2023-07-31T06:53:11;2.90;;;2.60;;
15153;SDS011;7677;41.896;25.004;2023-07-31T06:55:38;3.22;;;2.78;;
15153;SDS011;7677;41.896;25.004;2023-07-31T06:58:05;4.13;;;3.22;;
15153;SDS011;7677;41.896;25.004;2023-07-31T07:00:32;4.10;;;3.60;;
15153;SDS011;7677;41.896;25.004;2023-07-31T07:02:59;3.13;;;2.83;;
15153;SDS011;7677;41.896;25.004;2023-07-31T07:05:26;4.95;;;3.08;;
15153;SDS011;7677;41.896;25.004;2023-07-31T07:07:54;2.72;;;2.50;;
15153;SDS011;7677;41.896;25.004;2023-07-31T07:10:22;3.83;;;3.17;;
15153;SDS011;7677;41.896;25.004;2023-07-31T07:12:49;5.35;;;3.25;;
15153;SDS011;7677;41.896;25.004;2023-07-31T07:15:16;5.50;;;3.17;;
15153;SDS011;7677;41.896;25.004;2023-07-31T07:17:43;3.10;;;2.80;;
15153;SDS011;7677;41.896;25.004;2023-07-31T07:20:10;3.10;;;2.80;;
15153;SDS011;7677;41.896;25.004;2023-07-31T07:22:37;3.78;;;3.30;;
15153;SDS011;7677;41.896;25.004;2023-07-31T07:25:04;3.47;;;3.05;;
15153;SDS011;7677;41.896;25.004;2023-07-31T07:27:33;4.38;;;3.13;;
15153;SDS011;7677;41.896;25.004;2023-07-31T07:30:01;3.63;;;3.33;;
15153;SDS011;7677;41.896;25.004;2023-07-31T07:32:28;3.45;;;2.78;;
15153;SDS011;7677;41.896;25.004;2023-07-31T07:34:55;3.60;;;3.00;;
15153;SDS011;7677;41.896;25.004;2023-07-31T07:37:22;3.20;;;2.85;;
15153;SDS011;7677;41.896;25.004;2023-07-31T07:39:50;3.30;;;3.03;;
15153;SDS011;7677;41.896;25.004;2023-07-31T07:42:17;3.80;;;3.30;;
15153;SDS011;7677;41.896;25.004;2023-07-31T07:44:45;3.83;;;3.45;;
15153;SDS011;7677;41.896;25.004;2023-07-31T07:47:12;4.10;;;3.45;;
15153;SDS011;7677;41.896;25.004;2023-07-31T07:49:39;4.75;;;3.03;;
15153;SDS011;7677;41.896;25.004;2023-07-31T07:52:07;5.30;;;3.30;;
15153;SDS011;7677;41.896;25.004;2023-07-31T07:54:34;5.47;;;3.80;;
15153;SDS011;7677;41.896;25.004;2023-07-31T07:57:01;4.32;;;3.90;;
15153;SDS011;7677;41.896;25.004;2023-07-31T07:59:28;4.57;;;3.50;;
15153;SDS011;7677;41.896;25.004;2023-07-31T08:01:56;6.25;;;3.42;;
15153;SDS011;7677;41.896;25.004;2023-07-31T08:04:23;4.10;;;3.70;;
15153;SDS011;7677;41.896;25.004;2023-07-31T08:06:50;4.07;;;3.20;;
15153;SDS011;7677;41.896;25.004;2023-07-31T08:09:17;4.13;;;3.63;;
15153;SDS011;7677;41.896;25.004;2023-07-31T08:11:44;5.65;;;4.22;;
15153;SDS011;7677;41.896;25.004;2023-07-31T08:14:11;6.60;;;4.15;;
15153;SDS011;7677;41.896;25.004;2023-07-31T08:16:38;5.18;;;4.18;;
15153;SDS011;7677;41.896;25.004;2023-07-31T08:19:07;5.25;;;4.20;;
15153;SDS011;7677;41.896;25.004;2023-07-31T08:21:34;4.53;;;4.07;;
15153;SDS011;7677;41.896;25.004;2023-07-31T08:24:01;5.78;;;4.82;;
15153;SDS011;7677;41.896;25.004;2023-07-31T08:26:28;6.25;;;4.60;;
15153;SDS011;7677;41.896;25.004;2023-07-31T08:28:55;6.28;;;5.30;;
15153;SDS011;7677;41.896;25.004;2023-07-31T08:31:22;6.63;;;5.80;;
15153;SDS011;7677;41.896;25.004;2023-07-31T08:33:49;7.18;;;6.07;;
15153;SDS011;7677;41.896;25.004;2023-07-31T08:36:18;6.22;;;5.63;;
15153;SDS011;7677;41.896;25.004;2023-07-31T08:38:45;6.97;;;6.28;;
15153;SDS011;7677;41.896;25.004;2023-07-31T08:41:12;9.02;;;5.88;;
15153;SDS011;7677;41.896;25.004;2023-07-31T08:43:39;7.57;;;5.93;;
15153;SDS011;7677;41.896;25.004;2023-07-31T08:46:06;9.32;;;6.43;;
15153;SDS011;7677;41.896;25.004;2023-07-31T08:48:33;7.00;;;6.22;;
15153;SDS011;7677;41.896;25.004;2023-07-31T08:51:02;8.20;;;7.25;;
15153;SDS011;7677;41.896;25.004;2023-07-31T08:53:30;7.40;;;6.50;;
15153;SDS011;7677;41.896;25.004;2023-07-31T08:55:58;8.13;;;7.15;;
15153;SDS011;7677;41.896;25.004;2023-07-31T08:58:26;6.95;;;6.25;;
15153;SDS011;7677;41.896;25.004;2023-07-31T09:00:54;9.63;;;7.38;;
15153;SDS011;7677;41.896;25.004;2023-07-31T09:03:23;8.85;;;7.60;;
15153;SDS011;7677;41.896;25.004;2023-07-31T09:05:51;8.18;;;7.35;;
15153;SDS011;7677;41.896;25.004;2023-07-31T09:08:19;8.82;;;7.60;;
15153;SDS011;7677;41.896;25.004;2023-07-31T09:10:49;7.60;;;6.72;;
15153;SDS011;7677;41.896;25.004;2023-07-31T09:13:16;8.45;;;7.03;;
15153;SDS011;7677;41.896;25.004;2023-07-31T09:15:44;8.55;;;7.72;;
15153;SDS011;7677;41.896;25.004;2023-07-31T09:18:12;7.50;;;6.75;;
15153;SDS011;7677;41.896;25.004;2023-07-31T09:20:39;7.65;;;6.55;;
15153;SDS011;7677;41.896;25.004;2023-07-31T09:23:07;7.57;;;6.63;;
15153;SDS011;7677;41.896;25.004;2023-07-31T09:25:34;10.50;;;7.07;;
15153;SDS011;7677;41.896;25.004;2023-07-31T09:28:04;8.25;;;6.75;;
15153;SDS011;7677;41.896;25.004;2023-07-31T09:30:32;7.25;;;6.55;;
15153;SDS011;7677;41.896;25.004;2023-07-31T09:33:11;8.25;;;6.63;;
15153;SDS011;7677;41.896;25.004;2023-07-31T09:35:38;9.38;;;7.25;;
15153;SDS011;7677;41.896;25.004;2023-07-31T09:38:06;10.02;;;7.38;;
15153;SDS011;7677;41.896;25.004;2023-07-31T09:40:35;9.55;;;7.60;;
15153;SDS011;7677;41.896;25.004;2023-07-31T09:43:05;10.25;;;9.15;;
15153;SDS011;7677;41.896;25.004;2023-07-31T09:45:33;10.10;;;8.35;;
15153;SDS011;7677;41.896;25.004;2023-07-31T09:48:01;11.27;;;8.85;;
15153;SDS011;7677;41.896;25.004;2023-07-31T09:50:29;8.80;;;7.90;;
15153;SDS011;7677;41.896;25.004;2023-07-31T09:52:56;7.75;;;6.90;;
15153;SDS011;7677;41.896;25.004;2023-07-31T09:55:23;8.48;;;7.57;;
15153;SDS011;7677;41.896;25.004;2023-07-31T09:57:51;8.65;;;6.78;;
15153;SDS011;7677;41.896;25.004;2023-07-31T10:00:19;10.38;;;8.30;;
15153;SDS011;7677;41.896;25.004;2023-07-31T10:02:50;7.88;;;7.07;;
15153;SDS011;7677;41.896;25.004;2023-07-31T10:05:17;9.93;;;7.85;;
15153;SDS011;7677;41.896;25.004;2023-07-31T10:07:48;10.05;;;7.82;;
15153;SDS011;7677;41.896;25.004;2023-07-31T10:10:19;9.35;;;7.78;;
15153;SDS011;7677;41.896;25.004;2023-07-31T10:12:46;8.88;;;7.75;;
15153;SDS011;7677;41.896;25.004;2023-07-31T10:15:15;9.55;;;8.40;;
15153;SDS011;7677;41.896;25.004;2023-07-31T10:17:43;9.50;;;8.23;;
15153;SDS011;7677;41.896;25.004;2023-07-31T10:20:10;9.32;;;8.38;;
15153;SDS011;7677;41.896;25.004;2023-07-31T10:22:38;11.90;;;9.05;;
15153;SDS011;7677;41.896;25.004;2023-07-31T10:25:05;10.43;;;8.10;;
15153;SDS011;7677;41.896;25.004;2023-07-31T10:27:35;8.55;;;7.55;;
15153;SDS011;7677;41.896;25.004;2023-07-31T10:30:02;10.98;;;7.70;;
15153;SDS011;7677;41.896;25.004;2023-07-31T10:32:30;10.02;;;8.20;;
15153;SDS011;7677;41.896;25.004;2023-07-31T10:34:59;9.02;;;8.13;;
15153;SDS011;7677;41.896;25.004;2023-07-31T10:37:28;8.95;;;7.85;;
15153;SDS011;7677;41.896;25.004;2023-07-31T10:39:57;10.13;;;8.15;;
15153;SDS011;7677;41.896;25.004;2023-07-31T10:42:28;9.55;;;8.25;;
15153;SDS011;7677;41.896;25.004;2023-07-31T10:45:00;10.20;;;8.07;;
15153;SDS011;7677;41.896;25.004;2023-07-31T10:47:27;8.63;;;7.72;;
15153;SDS011;7677;41.896;25.004;2023-07-31T10:52:44;9.00;;;8.10;;
15153;SDS011;7677;41.896;25.004;2023-07-31T10:55:14;8.70;;;7.28;;
15153;SDS011;7677;41.896;25.004;2023-07-31T10:57:44;8.10;;;7.10;;
15153;SDS011;7677;41.896;25.004;2023-07-31T11:00:21;8.32;;;7.30;;
15153;SDS011;7677;41.896;25.004;2023-07-31T11:03:00;8.88;;;7.85;;
15153;SDS011;7677;41.896;25.004;2023-07-31T11:05:48;7.93;;;7.15;;
15153;SDS011;7677;41.896;25.004;2023-07-31T11:08:19;10.25;;;8.07;;
15153;SDS011;7677;41.896;25.004;2023-07-31T11:10:47;8.68;;;7.38;;
15153;SDS011;7677;41.896;25.004;2023-07-31T11:13:15;11.35;;;7.68;;
15153;SDS011;7677;41.896;25.004;2023-07-31T11:15:42;8.52;;;7.70;;
15153;SDS011;7677;41.896;25.004;2023-07-31T11:18:09;8.98;;;7.57;;
15153;SDS011;7677;41.896;25.004;2023-07-31T11:20:37;9.63;;;7.78;;
15153;SDS011;7677;41.896;25.004;2023-07-31T11:23:08;8.77;;;7.50;;
15153;SDS011;7677;41.896;25.004;2023-07-31T11:25:36;8.50;;;7.30;;
15153;SDS011;7677;41.896;25.004;2023-07-31T11:28:05;8.90;;;7.82;;
15153;SDS011;7677;41.896;25.004;2023-07-31T11:30:34;8.80;;;7.78;;
15153;SDS011;7677;41.896;25.004;2023-07-31T11:33:01;8.20;;;7.00;;
15153;SDS011;7677;41.896;25.004;2023-07-31T11:35:30;8.00;;;6.93;;
15153;SDS011;7677;41.896;25.004;2023-07-31T11:37:57;8.90;;;7.20;;
15153;SDS011;7677;41.896;25.004;2023-07-31T11:40:26;9.10;;;7.93;;
15153;SDS011;7677;41.896;25.004;2023-07-31T11:42:55;9.63;;;8.30;;
15153;SDS011;7677;41.896;25.004;2023-07-31T11:45:24;10.20;;;8.63;;
15153;SDS011;7677;41.896;25.004;2023-07-31T11:47:53;8.60;;;7.63;;
15153;SDS011;7677;41.896;25.004;2023-07-31T11:50:21;9.82;;;7.78;;
15153;SDS011;7677;41.896;25.004;2023-07-31T11:52:50;9.35;;;7.82;;
15153;SDS011;7677;41.896;25.004;2023-07-31T11:55:18;9.57;;;7.60;;
15153;SDS011;7677;41.896;25.004;2023-07-31T11:57:47;11.88;;;7.47;;
15153;SDS011;7677;41.896;25.004;2023-07-31T12:00:14;9.52;;;7.85;;
15153;SDS011;7677;41.896;25.004;2023-07-31T12:02:42;9.60;;;7.28;;
15153;SDS011;7677;41.896;25.004;2023-07-31T12:05:10;10.43;;;7.45;;
15153;SDS011;7677;41.896;25.004;2023-07-31T12:07:43;8.75;;;7.70;;
15153;SDS011;7677;41.896;25.004;2023-07-31T12:10:11;8.73;;;7.82;;
15153;SDS011;7677;41.896;25.004;2023-07-31T12:12:38;8.93;;;8.02;;
15153;SDS011;7677;41.896;25.004;2023-07-31T12:15:14;9.27;;;8.10;;
15153;SDS011;7677;41.896;25.004;2023-07-31T12:17:42;9.55;;;7.63;;
15153;SDS011;7677;41.896;25.004;2023-07-31T12:20:09;8.10;;;7.30;;
15153;SDS011;7677;41.896;25.004;2023-07-31T12:22:37;7.85;;;7.03;;
15153;SDS011;7677;41.896;25.004;2023-07-31T12:25:04;8.88;;;7.38;;
15153;SDS011;7677;41.896;25.004;2023-07-31T12:27:32;9.93;;;8.10;;
15153;SDS011;7677;41.896;25.004;2023-07-31T12:30:00;7.93;;;7.05;;
15153;SDS011;7677;41.896;25.004;2023-07-31T12:32:29;8.18;;;7.18;;
15153;SDS011;7677;41.896;25.004;2023-07-31T12:34:59;7.72;;;6.95;;
15153;SDS011;7677;41.896;25.004;2023-07-31T12:37:28;7.78;;;6.97;;
15153;SDS011;7677;41.896;25.004;2023-07-31T12:39:57;7.78;;;6.72;;
15153;SDS011;7677;41.896;25.004;2023-07-31T12:42:30;5.90;;;5.03;;
15153;SDS011;7677;41.896;25.004;2023-07-31T12:44:57;10.65;;;6.78;;
15153;SDS011;7677;41.896;25.004;2023-07-31T12:47:24;6.60;;;5.50;;
15153;SDS011;7677;41.896;25.004;2023-07-31T12:49:52;5.82;;;5.22;;
15153;SDS011;7677;41.896;25.004;2023-07-31T12:52:19;6.72;;;5.43;;
15153;SDS011;7677;41.896;25.004;2023-07-31T12:54:47;8.75;;;5.57;;
15153;SDS011;7677;41.896;25.004;2023-07-31T12:57:14;7.43;;;5.72;;
15153;SDS011;7677;41.896;25.004;2023-07-31T12:59:41;6.03;;;5.43;;
15153;SDS011;7677;41.896;25.004;2023-07-31T13:02:08;5.28;;;4.80;;
15153;SDS011;7677;41.896;25.004;2023-07-31T13:04:35;5.45;;;4.95;;
15153;SDS011;7677;41.896;25.004;2023-07-31T13:07:03;4.35;;;4.03;;
15153;SDS011;7677;41.896;25.004;2023-07-31T13:09:31;5.47;;;4.97;;
15153;SDS011;7677;41.896;25.004;2023-07-31T13:11:58;5.63;;;5.13;;
15153;SDS011;7677;41.896;25.004;2023-07-31T13:14:25;4.97;;;4.47;;
15153;SDS011;7677;41.896;25.004;2023-07-31T13:16:52;5.43;;;4.93;;
15153;SDS011;7677;41.896;25.004;2023-07-31T13:19:19;5.78;;;5.15;;
15153;SDS011;7677;41.896;25.004;2023-07-31T13:21:46;4.72;;;4.22;;
15153;SDS011;7677;41.896;25.004;2023-07-31T13:24:14;4.80;;;4.25;;
15153;SDS011;7677;41.896;25.004;2023-07-31T13:26:41;6.45;;;3.88;;
15153;SDS011;7677;41.896;25.004;2023-07-31T13:29:08;7.10;;;4.80;;
15153;SDS011;7677;41.896;25.004;2023-07-31T13:31:36;5.22;;;4.60;;
15153;SDS011;7677;41.896;25.004;2023-07-31T13:34:03;4.40;;;3.67;;
15153;SDS011;7677;41.896;25.004;2023-07-31T13:36:30;3.92;;;3.42;;
15153;SDS011;7677;41.896;25.004;2023-07-31T13:38:59;5.05;;;3.90;;
15153;SDS011;7677;41.896;25.004;2023-07-31T13:41:27;4.82;;;4.03;;
15153;SDS011;7677;41.896;25.004;2023-07-31T13:43:56;4.30;;;3.90;;
15153;SDS011;7677;41.896;25.004;2023-07-31T13:46:23;3.97;;;3.60;;
15153;SDS011;7677;41.896;25.004;2023-07-31T13:48:50;4.30;;;3.90;;
15153;SDS011;7677;41.896;25.004;2023-07-31T13:51:20;4.65;;;4.25;;
15153;SDS011;7677;41.896;25.004;2023-07-31T13:53:47;5.13;;;4.70;;
15153;SDS011;7677;41.896;25.004;2023-07-31T13:56:14;5.38;;;4.20;;
15153;SDS011;7677;41.896;25.004;2023-07-31T13:58:42;4.60;;;4.20;;
15153;SDS011;7677;41.896;25.004;2023-07-31T14:01:09;4.72;;;4.15;;
15153;SDS011;7677;41.896;25.004;2023-07-31T14:03:36;4.80;;;4.40;;
15153;SDS011;7677;41.896;25.004;2023-07-31T14:06:03;6.32;;;4.72;;
15153;SDS011;7677;41.896;25.004;2023-07-31T14:08:30;5.38;;;4.85;;
15153;SDS011;7677;41.896;25.004;2023-07-31T14:10:57;6.45;;;5.03;;
15153;SDS011;7677;41.896;25.004;2023-07-31T14:13:24;6.70;;;4.78;;
15153;SDS011;7677;41.896;25.004;2023-07-31T14:15:52;4.93;;;4.43;;
15153;SDS011;7677;41.896;25.004;2023-07-31T14:18:19;5.55;;;5.05;;
15153;SDS011;7677;41.896;25.004;2023-07-31T14:20:46;5.97;;;5.05;;
15153;SDS011;7677;41.896;25.004;2023-07-31T14:23:13;5.47;;;4.82;;
15153;SDS011;7677;41.896;25.004;2023-07-31T14:25:41;5.40;;;4.90;;
15153;SDS011;7677;41.896;25.004;2023-07-31T14:28:08;5.47;;;4.80;;
15153;SDS011;7677;41.896;25.004;2023-07-31T14:30:35;5.22;;;4.72;;
15153;SDS011;7677;41.896;25.004;2023-07-31T14:33:03;5.85;;;5.30;;
15153;SDS011;7677;41.896;25.004;2023-07-31T14:35:30;9.73;;;5.07;;
15153;SDS011;7677;41.896;25.004;2023-07-31T14:37:57;4.82;;;4.32;;
15153;SDS011;7677;41.896;25.004;2023-07-31T14:40:24;4.32;;;3.80;;
15153;SDS011;7677;41.896;25.004;2023-07-31T14:42:51;4.38;;;3.88;;
15153;SDS011;7677;41.896;25.004;2023-07-31T14:45:18;4.10;;;3.78;;
15153;SDS011;7677;41.896;25.004;2023-07-31T14:47:45;4.35;;;3.95;;
15153;SDS011;7677;41.896;25.004;2023-07-31T14:50:14;5.25;;;4.28;;
15153;SDS011;7677;41.896;25.004;2023-07-31T14:52:41;5.35;;;4.25;;
15153;SDS011;7677;41.896;25.004;2023-07-31T14:55:08;4.50;;;4.10;;
15153;SDS011;7677;41.896;25.004;2023-07-31T14:57:35;4.57;;;3.75;;